sensor_id;sensor_type;location;lat;lon;timestamp;P1;durP1;ratioP1;P2;durP2;ratioP2
8361;SDS011;4218;48.326;14.304;2023-03-03T00:01:18;16.80;;;15.37;;
8361;SDS011;4218;48.326;14.304;2023-03-03T00:03:43;14.07;;;12.87;;
8361;SDS011;4218;48.326;14.304;2023-03-03T00:06:10;14.57;;;13.30;;
8361;SDS011;4218;48.326;14.304;2023-03-03T00:08:38;14.43;;;13.23;;
8361;SDS011;4218;48.326;14.304;2023-03-03T00:11:03;15.70;;;14.43;;
8361;SDS011;4218;48.326;14.304;2023-03-03T00:13:31;17.10;;;15.60;;
8361;SDS011;4218;48.326;14.304;2023-03-03T00:16:11;14.97;;;13.77;;
8361;SDS011;4218;48.326;14.304;2023-03-03T00:18:59;13.37;;;12.23;;
8361;SDS011;4218;48.326;14.304;2023-03-03T00:21:32;17.70;;;15.13;;
8361;SDS011;4218;48.326;14.304;2023-03-03T00:26:52;15.47;;;13.27;;
8361;SDS011;4218;48.326;14.304;2023-03-03T00:29:27;14.30;;;13.30;;
8361;SDS011;4218;48.326;14.304;2023-03-03T00:31:58;15.10;;;13.70;;
8361;SDS011;4218;48.326;14.304;2023-03-03T00:34:27;14.70;;;13.33;;
8361;SDS011;4218;48.326;14.304;2023-03-03T00:36:55;15.83;;;14.83;;
8361;SDS011;4218;48.326;14.304;2023-03-03T00:42:10;15.23;;;13.37;;
8361;SDS011;4218;48.326;14.304;2023-03-03T00:44:39;16.77;;;15.67;;
8361;SDS011;4218;48.326;14.304;2023-03-03T00:52:36;14.67;;;13.57;;
8361;SDS011;4218;48.326;14.304;2023-03-03T00:55:03;14.20;;;12.87;;
8361;SDS011;4218;48.326;14.304;2023-03-03T00:57:30;12.80;;;11.87;;
8361;SDS011;4218;48.326;14.304;2023-03-03T00:59:56;13.93;;;12.83;;
8361;SDS011;4218;48.326;14.304;2023-03-03T01:02:21;13.97;;;12.97;;
8361;SDS011;4218;48.326;14.304;2023-03-03T01:04:50;13.90;;;12.63;;
8361;SDS011;4218;48.326;14.304;2023-03-03T01:07:17;13.83;;;12.57;;
8361;SDS011;4218;48.326;14.304;2023-03-03T01:09:43;13.60;;;12.53;;
8361;SDS011;4218;48.326;14.304;2023-03-03T01:12:08;15.67;;;12.90;;
8361;SDS011;4218;48.326;14.304;2023-03-03T01:14:35;15.13;;;14.13;;
8361;SDS011;4218;48.326;14.304;2023-03-03T01:17:01;13.23;;;12.43;;
8361;SDS011;4218;48.326;14.304;2023-03-03T01:19:26;15.43;;;14.00;;
8361;SDS011;4218;48.326;14.304;2023-03-03T01:21:52;15.67;;;14.70;;
8361;SDS011;4218;48.326;14.304;2023-03-03T01:24:17;14.03;;;13.10;;
8361;SDS011;4218;48.326;14.304;2023-03-03T01:26:43;14.93;;;13.70;;
8361;SDS011;4218;48.326;14.304;2023-03-03T01:29:08;12.83;;;12.03;;
8361;SDS011;4218;48.326;14.304;2023-03-03T01:31:34;13.40;;;12.40;;
8361;SDS011;4218;48.326;14.304;2023-03-03T01:33:59;14.43;;;13.17;;
8361;SDS011;4218;48.326;14.304;2023-03-03T01:36:25;17.33;;;16.03;;
8361;SDS011;4218;48.326;14.304;2023-03-03T01:38:51;13.73;;;12.73;;
8361;SDS011;4218;48.326;14.304;2023-03-03T01:41:17;13.57;;;12.57;;
8361;SDS011;4218;48.326;14.304;2023-03-03T01:43:43;14.20;;;12.93;;
8361;SDS011;4218;48.326;14.304;2023-03-03T01:48:48;17.43;;;15.70;;
8361;SDS011;4218;48.326;14.304;2023-03-03T01:51:20;14.87;;;13.87;;
8361;SDS011;4218;48.326;14.304;2023-03-03T01:54:00;16.27;;;15.07;;
8361;SDS011;4218;48.326;14.304;2023-03-03T01:56:28;14.13;;;13.17;;
8361;SDS011;4218;48.326;14.304;2023-03-03T01:59:00;14.90;;;13.70;;
8361;SDS011;4218;48.326;14.304;2023-03-03T02:01:30;14.97;;;13.57;;
8361;SDS011;4218;48.326;14.304;2023-03-03T02:03:57;15.50;;;13.87;;
8361;SDS011;4218;48.326;14.304;2023-03-03T02:06:24;16.33;;;14.93;;
8361;SDS011;4218;48.326;14.304;2023-03-03T02:11:30;14.57;;;13.57;;
8361;SDS011;4218;48.326;14.304;2023-03-03T02:13:56;16.50;;;14.87;;
8361;SDS011;4218;48.326;14.304;2023-03-03T02:16:22;15.40;;;14.40;;
8361;SDS011;4218;48.326;14.304;2023-03-03T02:18:47;15.37;;;14.30;;
8361;SDS011;4218;48.326;14.304;2023-03-03T02:21:13;17.17;;;15.37;;
8361;SDS011;4218;48.326;14.304;2023-03-03T02:23:47;16.77;;;15.43;;
8361;SDS011;4218;48.326;14.304;2023-03-03T02:26:15;14.80;;;13.50;;
8361;SDS011;4218;48.326;14.304;2023-03-03T02:28:43;15.37;;;14.27;;
8361;SDS011;4218;48.326;14.304;2023-03-03T02:31:13;15.40;;;14.30;;
8361;SDS011;4218;48.326;14.304;2023-03-03T02:33:41;15.53;;;14.27;;
8361;SDS011;4218;48.326;14.304;2023-03-03T02:36:12;13.40;;;12.23;;
8361;SDS011;4218;48.326;14.304;2023-03-03T02:38:48;11.97;;;10.87;;
8361;SDS011;4218;48.326;14.304;2023-03-03T02:46:24;14.23;;;13.20;;
8361;SDS011;4218;48.326;14.304;2023-03-03T02:48:50;15.87;;;14.67;;
8361;SDS011;4218;48.326;14.304;2023-03-03T02:51:15;12.63;;;11.70;;
8361;SDS011;4218;48.326;14.304;2023-03-03T02:53:40;12.77;;;11.87;;
8361;SDS011;4218;48.326;14.304;2023-03-03T02:56:06;15.50;;;14.03;;
8361;SDS011;4218;48.326;14.304;2023-03-03T02:58:33;12.77;;;11.77;;
8361;SDS011;4218;48.326;14.304;2023-03-03T03:00:59;12.93;;;12.13;;
8361;SDS011;4218;48.326;14.304;2023-03-03T03:03:25;17.77;;;15.73;;
8361;SDS011;4218;48.326;14.304;2023-03-03T03:05:51;14.73;;;13.43;;
8361;SDS011;4218;48.326;14.304;2023-03-03T03:08:16;14.30;;;12.93;;
8361;SDS011;4218;48.326;14.304;2023-03-03T03:10:41;15.63;;;14.57;;
8361;SDS011;4218;48.326;14.304;2023-03-03T03:13:07;14.10;;;12.60;;
8361;SDS011;4218;48.326;14.304;2023-03-03T03:15:33;13.67;;;12.60;;
8361;SDS011;4218;48.326;14.304;2023-03-03T03:17:59;12.63;;;11.73;;
8361;SDS011;4218;48.326;14.304;2023-03-03T03:20:24;13.77;;;12.67;;
8361;SDS011;4218;48.326;14.304;2023-03-03T03:22:50;12.93;;;11.87;;
8361;SDS011;4218;48.326;14.304;2023-03-03T03:25:15;12.90;;;11.90;;
8361;SDS011;4218;48.326;14.304;2023-03-03T03:27:41;13.83;;;12.57;;
8361;SDS011;4218;48.326;14.304;2023-03-03T03:30:06;14.37;;;12.73;;
8361;SDS011;4218;48.326;14.304;2023-03-03T03:32:32;20.10;;;18.40;;
8361;SDS011;4218;48.326;14.304;2023-03-03T03:34:58;16.30;;;15.30;;
8361;SDS011;4218;48.326;14.304;2023-03-03T03:37:23;16.00;;;14.60;;
8361;SDS011;4218;48.326;14.304;2023-03-03T03:39:48;18.83;;;17.53;;
8361;SDS011;4218;48.326;14.304;2023-03-03T03:42:14;16.10;;;15.10;;
8361;SDS011;4218;48.326;14.304;2023-03-03T03:44:39;16.00;;;14.83;;
8361;SDS011;4218;48.326;14.304;2023-03-03T03:47:05;18.43;;;17.13;;
8361;SDS011;4218;48.326;14.304;2023-03-03T03:49:30;16.47;;;15.43;;
8361;SDS011;4218;48.326;14.304;2023-03-03T03:51:55;15.50;;;14.30;;
8361;SDS011;4218;48.326;14.304;2023-03-03T03:54:21;15.67;;;14.23;;
8361;SDS011;4218;48.326;14.304;2023-03-03T03:56:47;13.63;;;12.67;;
8361;SDS011;4218;48.326;14.304;2023-03-03T03:59:12;13.73;;;12.53;;
8361;SDS011;4218;48.326;14.304;2023-03-03T04:01:38;17.10;;;13.00;;
8361;SDS011;4218;48.326;14.304;2023-03-03T04:04:03;14.53;;;13.23;;
8361;SDS011;4218;48.326;14.304;2023-03-03T04:06:29;15.07;;;13.90;;
8361;SDS011;4218;48.326;14.304;2023-03-03T04:08:54;15.27;;;14.07;;
8361;SDS011;4218;48.326;14.304;2023-03-03T04:11:20;16.67;;;15.40;;
8361;SDS011;4218;48.326;14.304;2023-03-03T04:13:45;14.67;;;13.63;;
8361;SDS011;4218;48.326;14.304;2023-03-03T04:16:10;15.27;;;13.80;;
8361;SDS011;4218;48.326;14.304;2023-03-03T04:18:36;16.23;;;14.10;;
8361;SDS011;4218;48.326;14.304;2023-03-03T04:21:01;13.83;;;12.73;;
8361;SDS011;4218;48.326;14.304;2023-03-03T04:23:27;14.67;;;13.57;;
8361;SDS011;4218;48.326;14.304;2023-03-03T04:25:52;14.87;;;13.67;;
8361;SDS011;4218;48.326;14.304;2023-03-03T04:28:18;17.60;;;16.07;;
8361;SDS011;4218;48.326;14.304;2023-03-03T04:30:43;17.37;;;15.33;;
8361;SDS011;4218;48.326;14.304;2023-03-03T04:33:09;15.07;;;13.90;;
8361;SDS011;4218;48.326;14.304;2023-03-03T04:35:34;14.53;;;13.43;;
8361;SDS011;4218;48.326;14.304;2023-03-03T04:38:00;15.03;;;13.93;;
8361;SDS011;4218;48.326;14.304;2023-03-03T04:40:25;16.33;;;14.90;;
8361;SDS011;4218;48.326;14.304;2023-03-03T04:42:51;16.13;;;14.97;;
8361;SDS011;4218;48.326;14.304;2023-03-03T04:45:17;16.33;;;14.97;;
8361;SDS011;4218;48.326;14.304;2023-03-03T04:47:43;17.93;;;16.60;;
8361;SDS011;4218;48.326;14.304;2023-03-03T04:50:09;17.20;;;15.57;;
8361;SDS011;4218;48.326;14.304;2023-03-03T04:52:35;18.20;;;16.80;;
8361;SDS011;4218;48.326;14.304;2023-03-03T04:55:01;19.97;;;18.47;;
8361;SDS011;4218;48.326;14.304;2023-03-03T04:57:26;19.33;;;17.93;;
8361;SDS011;4218;48.326;14.304;2023-03-03T04:59:52;17.57;;;16.13;;
8361;SDS011;4218;48.326;14.304;2023-03-03T05:02:17;18.40;;;17.03;;
8361;SDS011;4218;48.326;14.304;2023-03-03T05:04:43;18.23;;;16.93;;
8361;SDS011;4218;48.326;14.304;2023-03-03T05:07:08;17.33;;;15.87;;
8361;SDS011;4218;48.326;14.304;2023-03-03T05:09:33;17.67;;;16.03;;
8361;SDS011;4218;48.326;14.304;2023-03-03T05:11:59;17.13;;;15.77;;
8361;SDS011;4218;48.326;14.304;2023-03-03T05:14:25;20.27;;;18.70;;
8361;SDS011;4218;48.326;14.304;2023-03-03T05:16:50;18.07;;;16.57;;
8361;SDS011;4218;48.326;14.304;2023-03-03T05:19:16;15.87;;;14.47;;
8361;SDS011;4218;48.326;14.304;2023-03-03T05:21:41;15.60;;;14.57;;
8361;SDS011;4218;48.326;14.304;2023-03-03T05:24:11;19.50;;;18.00;;
8361;SDS011;4218;48.326;14.304;2023-03-03T05:26:37;17.87;;;16.50;;
8361;SDS011;4218;48.326;14.304;2023-03-03T05:29:03;20.97;;;19.40;;
8361;SDS011;4218;48.326;14.304;2023-03-03T05:31:30;20.07;;;18.47;;
8361;SDS011;4218;48.326;14.304;2023-03-03T05:33:55;16.07;;;14.67;;
8361;SDS011;4218;48.326;14.304;2023-03-03T05:36:21;17.63;;;16.23;;
8361;SDS011;4218;48.326;14.304;2023-03-03T05:38:46;18.07;;;16.60;;
8361;SDS011;4218;48.326;14.304;2023-03-03T05:41:12;16.73;;;15.13;;
8361;SDS011;4218;48.326;14.304;2023-03-03T05:43:37;13.80;;;12.50;;
8361;SDS011;4218;48.326;14.304;2023-03-03T05:46:02;13.60;;;12.40;;
8361;SDS011;4218;48.326;14.304;2023-03-03T05:48:28;13.07;;;11.80;;
8361;SDS011;4218;48.326;14.304;2023-03-03T05:50:56;15.53;;;14.43;;
8361;SDS011;4218;48.326;14.304;2023-03-03T05:53:23;15.40;;;14.20;;
8361;SDS011;4218;48.326;14.304;2023-03-03T05:55:48;15.00;;;13.70;;
8361;SDS011;4218;48.326;14.304;2023-03-03T05:58:13;16.83;;;14.23;;
8361;SDS011;4218;48.326;14.304;2023-03-03T06:00:39;14.27;;;13.07;;
8361;SDS011;4218;48.326;14.304;2023-03-03T06:03:04;16.20;;;15.07;;
8361;SDS011;4218;48.326;14.304;2023-03-03T06:05:30;15.77;;;14.53;;
8361;SDS011;4218;48.326;14.304;2023-03-03T06:07:55;16.70;;;15.13;;
8361;SDS011;4218;48.326;14.304;2023-03-03T06:10:20;17.10;;;15.43;;
8361;SDS011;4218;48.326;14.304;2023-03-03T06:12:46;21.00;;;19.23;;
8361;SDS011;4218;48.326;14.304;2023-03-03T06:15:11;22.13;;;20.57;;
8361;SDS011;4218;48.326;14.304;2023-03-03T06:17:37;18.10;;;16.03;;
8361;SDS011;4218;48.326;14.304;2023-03-03T06:20:02;16.53;;;15.07;;
8361;SDS011;4218;48.326;14.304;2023-03-03T06:22:28;18.50;;;17.10;;
8361;SDS011;4218;48.326;14.304;2023-03-03T06:24:54;19.83;;;18.37;;
8361;SDS011;4218;48.326;14.304;2023-03-03T06:27:20;17.20;;;15.43;;
8361;SDS011;4218;48.326;14.304;2023-03-03T06:29:45;17.10;;;15.80;;
8361;SDS011;4218;48.326;14.304;2023-03-03T06:32:13;17.20;;;15.43;;
8361;SDS011;4218;48.326;14.304;2023-03-03T06:34:38;18.47;;;17.00;;
8361;SDS011;4218;48.326;14.304;2023-03-03T06:37:04;19.90;;;18.23;;
8361;SDS011;4218;48.326;14.304;2023-03-03T06:39:30;20.30;;;18.60;;
8361;SDS011;4218;48.326;14.304;2023-03-03T06:41:55;18.90;;;17.27;;
8361;SDS011;4218;48.326;14.304;2023-03-03T06:44:21;18.67;;;17.07;;
8361;SDS011;4218;48.326;14.304;2023-03-03T06:46:46;18.17;;;16.50;;
8361;SDS011;4218;48.326;14.304;2023-03-03T06:49:12;17.83;;;16.43;;
8361;SDS011;4218;48.326;14.304;2023-03-03T06:51:37;19.60;;;17.90;;
8361;SDS011;4218;48.326;14.304;2023-03-03T06:54:14;17.20;;;15.73;;
8361;SDS011;4218;48.326;14.304;2023-03-03T06:56:41;17.90;;;16.30;;
8361;SDS011;4218;48.326;14.304;2023-03-03T07:01:40;18.77;;;17.30;;
8361;SDS011;4218;48.326;14.304;2023-03-03T07:04:16;21.67;;;19.87;;
8361;SDS011;4218;48.326;14.304;2023-03-03T07:07:14;26.67;;;24.37;;
8361;SDS011;4218;48.326;14.304;2023-03-03T07:09:51;29.07;;;26.30;;
8361;SDS011;4218;48.326;14.304;2023-03-03T07:12:29;39.90;;;36.53;;
8361;SDS011;4218;48.326;14.304;2023-03-03T07:17:45;22.93;;;21.03;;
8361;SDS011;4218;48.326;14.304;2023-03-03T07:20:23;23.63;;;21.63;;
8361;SDS011;4218;48.326;14.304;2023-03-03T07:23:36;26.00;;;23.47;;
8361;SDS011;4218;48.326;14.304;2023-03-03T07:26:07;25.57;;;20.30;;
8361;SDS011;4218;48.326;14.304;2023-03-03T07:28:35;23.50;;;21.10;;
8361;SDS011;4218;48.326;14.304;2023-03-03T07:31:15;22.50;;;20.27;;
8361;SDS011;4218;48.326;14.304;2023-03-03T07:33:49;20.73;;;18.70;;
8361;SDS011;4218;48.326;14.304;2023-03-03T07:36:21;23.37;;;20.93;;
8361;SDS011;4218;48.326;14.304;2023-03-03T07:38:56;23.83;;;21.37;;
8361;SDS011;4218;48.326;14.304;2023-03-03T07:41:23;24.13;;;21.73;;
8361;SDS011;4218;48.326;14.304;2023-03-03T07:43:49;24.70;;;21.80;;
8361;SDS011;4218;48.326;14.304;2023-03-03T07:48:45;27.53;;;21.57;;
8361;SDS011;4218;48.326;14.304;2023-03-03T07:59:36;30.13;;;24.83;;
8361;SDS011;4218;48.326;14.304;2023-03-03T08:02:08;30.53;;;26.10;;
8361;SDS011;4218;48.326;14.304;2023-03-03T08:05:23;27.10;;;24.23;;
8361;SDS011;4218;48.326;14.304;2023-03-03T08:07:53;35.50;;;32.17;;
8361;SDS011;4218;48.326;14.304;2023-03-03T08:13:21;33.27;;;29.83;;
8361;SDS011;4218;48.326;14.304;2023-03-03T08:15:48;33.27;;;29.67;;
8361;SDS011;4218;48.326;14.304;2023-03-03T08:18:29;31.87;;;28.67;;
8361;SDS011;4218;48.326;14.304;2023-03-03T08:21:00;30.10;;;24.50;;
8361;SDS011;4218;48.326;14.304;2023-03-03T08:23:28;40.83;;;32.07;;
8361;SDS011;4218;48.326;14.304;2023-03-03T08:25:53;37.63;;;31.67;;
8361;SDS011;4218;48.326;14.304;2023-03-03T08:28:19;38.23;;;30.47;;
8361;SDS011;4218;48.326;14.304;2023-03-03T08:30:45;35.50;;;31.20;;
8361;SDS011;4218;48.326;14.304;2023-03-03T08:33:11;35.63;;;30.07;;
8361;SDS011;4218;48.326;14.304;2023-03-03T08:35:37;35.23;;;28.70;;
8361;SDS011;4218;48.326;14.304;2023-03-03T08:38:03;41.83;;;37.53;;
8361;SDS011;4218;48.326;14.304;2023-03-03T08:40:29;51.23;;;46.47;;
8361;SDS011;4218;48.326;14.304;2023-03-03T08:42:54;34.20;;;30.77;;
8361;SDS011;4218;48.326;14.304;2023-03-03T08:45:22;32.67;;;29.23;;
8361;SDS011;4218;48.326;14.304;2023-03-03T08:47:48;38.20;;;34.40;;
8361;SDS011;4218;48.326;14.304;2023-03-03T08:50:13;38.97;;;35.27;;
8361;SDS011;4218;48.326;14.304;2023-03-03T08:52:39;34.20;;;30.23;;
8361;SDS011;4218;48.326;14.304;2023-03-03T08:55:04;39.93;;;35.77;;
8361;SDS011;4218;48.326;14.304;2023-03-03T08:57:30;38.40;;;29.30;;
8361;SDS011;4218;48.326;14.304;2023-03-03T08:59:55;34.10;;;29.90;;
8361;SDS011;4218;48.326;14.304;2023-03-03T09:02:21;35.50;;;28.37;;
8361;SDS011;4218;48.326;14.304;2023-03-03T09:04:46;37.03;;;28.90;;
8361;SDS011;4218;48.326;14.304;2023-03-03T09:07:11;43.00;;;29.00;;
8361;SDS011;4218;48.326;14.304;2023-03-03T09:09:37;34.23;;;29.33;;
8361;SDS011;4218;48.326;14.304;2023-03-03T09:12:11;34.63;;;26.47;;
8361;SDS011;4218;48.326;14.304;2023-03-03T09:14:49;31.60;;;25.23;;
8361;SDS011;4218;48.326;14.304;2023-03-03T09:17:48;35.73;;;29.57;;
8361;SDS011;4218;48.326;14.304;2023-03-03T09:22:58;33.50;;;27.73;;
8361;SDS011;4218;48.326;14.304;2023-03-03T09:25:40;30.13;;;23.47;;
8361;SDS011;4218;48.326;14.304;2023-03-03T09:28:09;28.97;;;22.13;;
8361;SDS011;4218;48.326;14.304;2023-03-03T09:30:58;27.57;;;22.57;;
8361;SDS011;4218;48.326;14.304;2023-03-03T09:33:30;27.27;;;21.50;;
8361;SDS011;4218;48.326;14.304;2023-03-03T09:38:47;26.77;;;23.43;;
8361;SDS011;4218;48.326;14.304;2023-03-03T09:46:44;24.43;;;21.53;;
8361;SDS011;4218;48.326;14.304;2023-03-03T09:49:31;24.93;;;20.80;;
8361;SDS011;4218;48.326;14.304;2023-03-03T09:52:10;24.97;;;22.07;;
8361;SDS011;4218;48.326;14.304;2023-03-03T10:03:33;26.50;;;24.07;;
8361;SDS011;4218;48.326;14.304;2023-03-03T10:06:24;28.80;;;25.87;;
8361;SDS011;4218;48.326;14.304;2023-03-03T10:12:04;23.37;;;21.20;;
8361;SDS011;4218;48.326;14.304;2023-03-03T10:14:55;37.87;;;34.57;;
8361;SDS011;4218;48.326;14.304;2023-03-03T10:22:54;26.40;;;20.83;;
8361;SDS011;4218;48.326;14.304;2023-03-03T10:39:15;23.17;;;21.07;;
8361;SDS011;4218;48.326;14.304;2023-03-03T10:50:02;24.07;;;21.77;;
8361;SDS011;4218;48.326;14.304;2023-03-03T11:01:03;24.63;;;20.03;;
8361;SDS011;4218;48.326;14.304;2023-03-03T11:04:02;38.03;;;18.57;;
8361;SDS011;4218;48.326;14.304;2023-03-03T11:09:10;22.87;;;20.43;;
8361;SDS011;4218;48.326;14.304;2023-03-03T11:11:58;22.37;;;19.73;;
8361;SDS011;4218;48.326;14.304;2023-03-03T11:14:46;26.10;;;19.90;;
8361;SDS011;4218;48.326;14.304;2023-03-03T11:20:35;22.53;;;20.33;;
8361;SDS011;4218;48.326;14.304;2023-03-03T11:26:43;27.03;;;22.67;;
8361;SDS011;4218;48.326;14.304;2023-03-03T11:29:18;24.37;;;21.97;;
8361;SDS011;4218;48.326;14.304;2023-03-03T11:37:33;23.83;;;21.90;;
8361;SDS011;4218;48.326;14.304;2023-03-03T11:40:01;25.60;;;22.23;;
8361;SDS011;4218;48.326;14.304;2023-03-03T11:42:38;23.00;;;20.73;;
8361;SDS011;4218;48.326;14.304;2023-03-03T11:45:13;23.60;;;21.10;;
8361;SDS011;4218;48.326;14.304;2023-03-03T11:50:22;22.53;;;20.23;;
8361;SDS011;4218;48.326;14.304;2023-03-03T11:52:54;23.97;;;21.47;;
8361;SDS011;4218;48.326;14.304;2023-03-03T11:55:44;22.80;;;20.50;;
8361;SDS011;4218;48.326;14.304;2023-03-03T11:58:57;22.53;;;20.13;;
8361;SDS011;4218;48.326;14.304;2023-03-03T12:01:59;21.27;;;18.57;;
8361;SDS011;4218;48.326;14.304;2023-03-03T12:04:24;22.20;;;19.87;;
8361;SDS011;4218;48.326;14.304;2023-03-03T12:09:48;24.00;;;21.73;;
8361;SDS011;4218;48.326;14.304;2023-03-03T12:12:29;24.13;;;21.73;;
8361;SDS011;4218;48.326;14.304;2023-03-03T12:23:55;23.37;;;21.03;;
8361;SDS011;4218;48.326;14.304;2023-03-03T12:26:58;25.27;;;22.70;;
8361;SDS011;4218;48.326;14.304;2023-03-03T12:29:52;25.67;;;23.13;;
8361;SDS011;4218;48.326;14.304;2023-03-03T12:32:35;24.80;;;21.20;;
8361;SDS011;4218;48.326;14.304;2023-03-03T12:35:33;23.77;;;21.47;;
8361;SDS011;4218;48.326;14.304;2023-03-03T12:43:59;23.27;;;21.03;;
8361;SDS011;4218;48.326;14.304;2023-03-03T12:46:39;23.20;;;21.17;;
8361;SDS011;4218;48.326;14.304;2023-03-03T12:49:15;23.03;;;20.90;;
8361;SDS011;4218;48.326;14.304;2023-03-03T12:51:49;23.53;;;21.20;;
8361;SDS011;4218;48.326;14.304;2023-03-03T13:02:19;23.97;;;21.83;;
8361;SDS011;4218;48.326;14.304;2023-03-03T13:07:58;25.90;;;23.30;;
8361;SDS011;4218;48.326;14.304;2023-03-03T13:10:47;22.17;;;20.10;;
8361;SDS011;4218;48.326;14.304;2023-03-03T13:16:05;24.47;;;22.33;;
8361;SDS011;4218;48.326;14.304;2023-03-03T13:27:19;21.60;;;19.57;;
8361;SDS011;4218;48.326;14.304;2023-03-03T13:32:35;77.40;;;73.07;;
8361;SDS011;4218;48.326;14.304;2023-03-03T13:35:17;23.10;;;21.03;;
8361;SDS011;4218;48.326;14.304;2023-03-03T13:37:55;22.53;;;20.27;;
8361;SDS011;4218;48.326;14.304;2023-03-03T13:43:17;21.80;;;19.63;;
8361;SDS011;4218;48.326;14.304;2023-03-03T13:46:04;23.07;;;20.97;;
8361;SDS011;4218;48.326;14.304;2023-03-03T13:48:49;22.77;;;20.47;;
8361;SDS011;4218;48.326;14.304;2023-03-03T13:56:54;23.97;;;21.83;;
8361;SDS011;4218;48.326;14.304;2023-03-03T14:05:11;27.00;;;24.40;;
8361;SDS011;4218;48.326;14.304;2023-03-03T14:07:51;24.80;;;22.40;;
8361;SDS011;4218;48.326;14.304;2023-03-03T14:10:25;28.17;;;22.13;;
8361;SDS011;4218;48.326;14.304;2023-03-03T14:21:33;25.87;;;23.43;;
8361;SDS011;4218;48.326;14.304;2023-03-03T14:26:25;26.00;;;23.50;;
8361;SDS011;4218;48.326;14.304;2023-03-03T14:28:50;24.37;;;22.00;;
8361;SDS011;4218;48.326;14.304;2023-03-03T14:31:40;22.30;;;20.57;;
8361;SDS011;4218;48.326;14.304;2023-03-03T14:36:48;22.60;;;20.50;;
8361;SDS011;4218;48.326;14.304;2023-03-03T14:42:01;20.30;;;18.30;;
8361;SDS011;4218;48.326;14.304;2023-03-03T14:44:37;22.37;;;20.33;;
8361;SDS011;4218;48.326;14.304;2023-03-03T14:47:23;24.17;;;22.13;;
8361;SDS011;4218;48.326;14.304;2023-03-03T14:49:51;22.87;;;20.97;;
8361;SDS011;4218;48.326;14.304;2023-03-03T14:52:21;28.83;;;26.43;;
8361;SDS011;4218;48.326;14.304;2023-03-03T14:54:55;27.00;;;24.73;;
8361;SDS011;4218;48.326;14.304;2023-03-03T15:05:26;22.73;;;20.83;;
8361;SDS011;4218;48.326;14.304;2023-03-03T15:07:54;23.47;;;21.47;;
8361;SDS011;4218;48.326;14.304;2023-03-03T15:10:25;27.07;;;24.77;;
8361;SDS011;4218;48.326;14.304;2023-03-03T15:12:52;23.93;;;21.97;;
8361;SDS011;4218;48.326;14.304;2023-03-03T15:15:18;29.63;;;27.33;;
8361;SDS011;4218;48.326;14.304;2023-03-03T15:20:23;25.23;;;22.93;;
8361;SDS011;4218;48.326;14.304;2023-03-03T15:31:49;19.40;;;17.67;;
8361;SDS011;4218;48.326;14.304;2023-03-03T15:39:19;18.80;;;17.10;;
8361;SDS011;4218;48.326;14.304;2023-03-03T15:42:02;20.67;;;18.57;;
8361;SDS011;4218;48.326;14.304;2023-03-03T15:53:14;21.93;;;19.57;;
8361;SDS011;4218;48.326;14.304;2023-03-03T15:56:05;24.80;;;22.43;;
8361;SDS011;4218;48.326;14.304;2023-03-03T16:02:09;21.50;;;19.70;;
8361;SDS011;4218;48.326;14.304;2023-03-03T16:04:35;21.07;;;19.10;;
8361;SDS011;4218;48.326;14.304;2023-03-03T16:07:09;22.83;;;20.90;;
8361;SDS011;4218;48.326;14.304;2023-03-03T16:12:50;21.57;;;19.40;;
8361;SDS011;4218;48.326;14.304;2023-03-03T16:26:59;22.77;;;20.37;;
8361;SDS011;4218;48.326;14.304;2023-03-03T16:32:26;22.27;;;19.53;;
8361;SDS011;4218;48.326;14.304;2023-03-03T16:37:37;26.17;;;22.10;;
8361;SDS011;4218;48.326;14.304;2023-03-03T16:42:42;26.90;;;24.10;;
8361;SDS011;4218;48.326;14.304;2023-03-03T16:45:25;28.63;;;25.70;;
8361;SDS011;4218;48.326;14.304;2023-03-03T16:59:15;27.83;;;22.93;;
8361;SDS011;4218;48.326;14.304;2023-03-03T17:05:03;28.10;;;25.17;;
8361;SDS011;4218;48.326;14.304;2023-03-03T17:07:54;27.33;;;23.57;;
8361;SDS011;4218;48.326;14.304;2023-03-03T17:10:25;29.70;;;26.43;;
8361;SDS011;4218;48.326;14.304;2023-03-03T17:13:23;29.37;;;25.47;;
8361;SDS011;4218;48.326;14.304;2023-03-03T17:19:17;32.73;;;29.23;;
8361;SDS011;4218;48.326;14.304;2023-03-03T17:22:23;31.53;;;27.47;;
8361;SDS011;4218;48.326;14.304;2023-03-03T17:27:49;27.40;;;24.43;;
8361;SDS011;4218;48.326;14.304;2023-03-03T17:30:55;28.37;;;24.27;;
8361;SDS011;4218;48.326;14.304;2023-03-03T17:37:07;28.70;;;24.17;;
8361;SDS011;4218;48.326;14.304;2023-03-03T17:53:05;27.73;;;24.83;;
8361;SDS011;4218;48.326;14.304;2023-03-03T17:59:02;27.37;;;24.60;;
8361;SDS011;4218;48.326;14.304;2023-03-03T18:04:38;25.17;;;22.67;;
8361;SDS011;4218;48.326;14.304;2023-03-03T18:10:03;27.33;;;24.50;;
8361;SDS011;4218;48.326;14.304;2023-03-03T18:13:15;26.27;;;23.70;;
8361;SDS011;4218;48.326;14.304;2023-03-03T18:26:49;73.27;;;40.93;;
8361;SDS011;4218;48.326;14.304;2023-03-03T18:34:28;29.13;;;26.00;;
8361;SDS011;4218;48.326;14.304;2023-03-03T18:37:00;30.57;;;27.23;;
8361;SDS011;4218;48.326;14.304;2023-03-03T18:39:44;30.93;;;27.67;;
8361;SDS011;4218;48.326;14.304;2023-03-03T18:44:39;31.30;;;26.23;;
8361;SDS011;4218;48.326;14.304;2023-03-03T18:47:05;34.23;;;26.13;;
8361;SDS011;4218;48.326;14.304;2023-03-03T18:49:51;29.77;;;26.00;;
8361;SDS011;4218;48.326;14.304;2023-03-03T18:52:22;29.70;;;25.30;;
8361;SDS011;4218;48.326;14.304;2023-03-03T18:57:35;39.67;;;32.40;;
8361;SDS011;4218;48.326;14.304;2023-03-03T19:00:21;39.17;;;30.87;;
8361;SDS011;4218;48.326;14.304;2023-03-03T19:02:51;29.50;;;26.20;;
8361;SDS011;4218;48.326;14.304;2023-03-03T19:08:29;26.97;;;23.93;;
8361;SDS011;4218;48.326;14.304;2023-03-03T19:14:02;25.10;;;22.20;;
8361;SDS011;4218;48.326;14.304;2023-03-03T19:16:43;24.17;;;21.70;;
8361;SDS011;4218;48.326;14.304;2023-03-03T19:19:14;24.67;;;21.30;;
8361;SDS011;4218;48.326;14.304;2023-03-03T19:21:42;25.93;;;23.07;;
8361;SDS011;4218;48.326;14.304;2023-03-03T19:24:30;25.53;;;22.87;;
8361;SDS011;4218;48.326;14.304;2023-03-03T19:35:22;26.77;;;23.97;;
8361;SDS011;4218;48.326;14.304;2023-03-03T19:44:05;26.07;;;22.10;;
8361;SDS011;4218;48.326;14.304;2023-03-03T19:52:16;27.30;;;24.67;;
8361;SDS011;4218;48.326;14.304;2023-03-03T19:57:47;23.43;;;21.03;;
8361;SDS011;4218;48.326;14.304;2023-03-03T20:06:07;22.03;;;19.83;;
8361;SDS011;4218;48.326;14.304;2023-03-03T20:16:54;22.27;;;19.90;;
8361;SDS011;4218;48.326;14.304;2023-03-03T20:27:21;32.17;;;28.80;;
8361;SDS011;4218;48.326;14.304;2023-03-03T20:32:37;24.33;;;21.93;;
8361;SDS011;4218;48.326;14.304;2023-03-03T20:40:46;23.73;;;21.63;;
8361;SDS011;4218;48.326;14.304;2023-03-03T20:43:33;22.67;;;20.27;;
8361;SDS011;4218;48.326;14.304;2023-03-03T20:46:27;24.03;;;21.53;;
8361;SDS011;4218;48.326;14.304;2023-03-03T20:52:07;21.50;;;19.33;;
8361;SDS011;4218;48.326;14.304;2023-03-03T21:05:58;22.60;;;20.50;;
8361;SDS011;4218;48.326;14.304;2023-03-03T21:11:14;20.53;;;18.60;;
8361;SDS011;4218;48.326;14.304;2023-03-03T21:13:42;25.47;;;23.07;;
8361;SDS011;4218;48.326;14.304;2023-03-03T21:18:57;24.93;;;22.20;;
8361;SDS011;4218;48.326;14.304;2023-03-03T21:21:27;20.87;;;18.90;;
8361;SDS011;4218;48.326;14.304;2023-03-03T21:23:56;24.27;;;21.17;;
8361;SDS011;4218;48.326;14.304;2023-03-03T21:29:39;25.57;;;22.93;;
8361;SDS011;4218;48.326;14.304;2023-03-03T21:32:04;25.47;;;23.13;;
8361;SDS011;4218;48.326;14.304;2023-03-03T21:34:33;25.53;;;21.80;;
8361;SDS011;4218;48.326;14.304;2023-03-03T21:37:02;27.13;;;24.47;;
8361;SDS011;4218;48.326;14.304;2023-03-03T21:39:31;25.50;;;23.20;;